Time;durP1;ratioP1;P1;durP2;ratioP2;P2;SDS_P1;SDS_P2;PMS_P1;PMS_P2;Temp;Humidity;BMP_temperature;BMP_pressure;BME280_temperature;BME280_humidity;BME280_pressure;Samples;Min_cycle;Max_cycle;Signal;HPM_P1;HPM_P2
2021/10/08 00:01:22;;;;;;;24.48;17.75;;;;;;;8.00;97.04;103073.22;5074888;28;20457;-35
2021/10/08 00:03:47;;;;;;;36.93;19.30;;;;;;;7.99;97.01;103076.94;5075109;28;20516;-35
2021/10/08 00:06:14;;;;;;;34.43;19.87;;;;;;;8.02;97.45;103075.78;5074593;28;20111;-35
2021/10/08 00:08:41;;;;;;;36.65;19.75;;;;;;;7.91;97.82;103063.44;5074873;28;20411;-35
2021/10/08 00:11:08;;;;;;;36.90;18.85;;;;;;;7.91;97.16;103066.13;5074694;28;20029;-35
2021/10/08 00:13:33;;;;;;;28.70;19.20;;;;;;;7.86;97.10;103063.91;5074708;28;20118;-35
2021/10/08 00:16:00;;;;;;;42.70;19.20;;;;;;;7.94;96.99;103082.78;5075040;28;20033;-35
2021/10/08 00:18:26;;;;;;;28.30;18.25;;;;;;;7.91;97.11;103080.44;5075269;28;20061;-35
2021/10/08 00:20:51;;;;;;;27.37;16.93;;;;;;;7.94;97.24;103079.25;5074891;28;20016;-35
2021/10/08 00:23:16;;;;;;;42.90;18.00;;;;;;;7.68;96.97;103047.78;5075301;28;20024;-35
2021/10/08 00:25:42;;;;;;;31.17;17.47;;;;;;;7.74;97.60;103054.38;5075008;28;20091;-35
2021/10/08 00:28:07;;;;;;;28.10;17.17;;;;;;;7.82;97.13;103081.38;5074419;28;20440;-35
2021/10/08 00:30:32;;;;;;;33.83;17.53;;;;;;;7.79;97.69;103080.84;5074604;28;20111;-35
2021/10/08 00:32:58;;;;;;;25.83;16.33;;;;;;;7.77;96.95;103086.41;5074655;28;20025;-35
2021/10/08 00:35:23;;;;;;;26.50;17.10;;;;;;;7.70;96.89;103082.63;5074328;28;20021;-35
2021/10/08 00:37:50;;;;;;;32.30;17.00;;;;;;;7.68;97.94;103092.72;5074339;28;20028;-35
2021/10/08 00:40:16;;;;;;;30.67;17.02;;;;;;;7.72;97.29;103088.72;5074139;28;20035;-35
2021/10/08 00:42:46;;;;;;;20.70;16.08;;;;;;;7.67;97.40;103093.75;5074634;28;20024;-35
2021/10/08 00:45:11;;;;;;;52.35;16.65;;;;;;;7.57;97.09;103090.31;5073947;28;20024;-35
2021/10/08 00:47:37;;;;;;;28.45;16.20;;;;;;;7.63;97.02;103097.75;5074358;28;20074;-35
2021/10/08 00:50:05;;;;;;;53.43;16.70;;;;;;;7.49;97.37;103099.97;5074110;28;20421;-35
2021/10/08 00:52:30;;;;;;;33.65;16.75;;;;;;;7.46;97.83;103096.75;5073843;28;20020;-35
2021/10/08 00:54:56;;;;;;;25.30;16.73;;;;;;;7.54;97.71;103098.69;5073586;28;20017;-35
2021/10/08 00:57:21;;;;;;;37.40;16.30;;;;;;;7.45;97.47;103095.91;5074360;28;20165;-35
2021/10/08 00:59:48;;;;;;;36.80;16.55;;;;;;;7.25;97.53;103070.16;5073481;28;20028;-35
2021/10/08 01:02:13;;;;;;;;;;;;;;;7.59;96.92;103099.06;5074726;28;20017;-35
2021/10/08 01:04:38;;;;;;;71.95;16.83;;;;;;;7.16;97.16;103058.47;5074204;28;19915;-35
2021/10/08 01:07:03;;;;;;;62.70;16.63;;;;;;;7.30;97.00;103093.94;5074436;28;20024;-35
2021/10/08 01:09:29;;;;;;;54.10;16.57;;;;;;;7.23;97.03;103093.72;5073025;28;20090;-35
2021/10/08 01:11:55;;;;;;;30.17;14.50;;;;;;;7.11;97.19;103076.09;5073681;28;20028;-35
2021/10/08 01:14:20;;;;;;;38.40;16.35;;;;;;;7.14;96.92;103083.88;5073836;28;20115;-35
2021/10/08 01:16:45;;;;;;;55.03;15.93;;;;;;;7.08;97.05;103089.88;5073715;28;20050;-35
2021/10/08 01:19:11;;;;;;;32.00;15.63;;;;;;;7.09;97.80;103089.69;5073823;28;20063;-35
2021/10/08 01:21:36;;;;;;;64.60;15.10;;;;;;;6.98;97.38;103092.63;5073139;28;20528;-35
2021/10/08 01:24:02;;;;;;;43.97;15.00;;;;;;;6.94;97.72;103092.06;5073559;28;20029;-35
2021/10/08 01:26:27;;;;;;;;;;;;;;;7.10;97.38;103096.78;5074254;28;20093;-35
2021/10/08 01:28:53;;;;;;;45.58;14.23;;;;;;;6.75;96.59;103065.31;5073436;28;20302;-35
2021/10/08 01:31:18;;;;;;;50.03;13.17;;;;;;;6.88;97.43;103084.63;5073216;28;20028;-35
2021/10/08 01:33:44;;;;;;;35.07;14.20;;;;;;;6.89;97.20;103093.53;5073222;28;20267;-35
2021/10/08 01:36:09;;;;;;;26.03;13.23;;;;;;;6.74;97.30;103074.38;5073252;28;20043;-35
2021/10/08 01:38:34;;;;;;;33.80;14.63;;;;;;;6.81;97.33;103098.81;5072834;28;20036;-35
2021/10/08 01:41:00;;;;;;;18.27;13.60;;;;;;;6.90;97.54;103106.81;5073826;28;20021;-35
2021/10/08 01:43:25;;;;;;;18.80;13.80;;;;;;;6.91;97.08;103097.75;5073704;28;20021;-35
2021/10/08 01:45:50;;;;;;;20.37;13.37;;;;;;;6.91;97.59;103097.75;5072819;28;20498;-35
2021/10/08 01:48:16;;;;;;;23.10;14.53;;;;;;;6.93;97.25;103097.63;5073081;28;20016;-35
2021/10/08 01:50:41;;;;;;;23.37;13.40;;;;;;;7.00;98.09;103105.91;5073006;28;20465;-35
2021/10/08 01:53:08;;;;;;;15.50;13.55;;;;;;;7.03;97.44;103100.22;5073440;28;20373;-35
2021/10/08 01:55:34;;;;;;;52.88;14.25;;;;;;;6.89;97.24;103078.25;5072882;28;20024;-35
2021/10/08 01:57:59;;;;;;;40.10;14.87;;;;;;;7.04;96.89;103102.78;5073435;28;20025;-35
2021/10/08 02:00:24;;;;;;;46.97;13.77;;;;;;;6.86;97.37;103078.53;5072847;28;20025;-35
2021/10/08 02:02:50;;;;;;;30.53;14.87;;;;;;;6.90;97.06;103082.63;5073593;28;20139;-35
2021/10/08 02:05:15;;;;;;;31.37;13.23;;;;;;;6.96;97.44;103091.91;5072642;28;20021;-35
2021/10/08 02:07:40;;;;;;;32.70;14.20;;;;;;;6.94;97.06;103093.94;5073032;28;20020;-35
2021/10/08 02:10:06;;;;;;;47.80;13.60;;;;;;;6.82;96.74;103079.84;5072860;28;20040;-35
2021/10/08 02:12:31;;;;;;;45.08;13.55;;;;;;;6.87;96.93;103100.88;5072696;28;20037;-35
2021/10/08 02:14:57;;;;;;;49.03;13.50;;;;;;;6.79;96.71;103096.28;5072772;28;20074;-35
2021/10/08 02:17:22;;;;;;;38.17;13.90;;;;;;;6.81;97.81;103091.59;5073448;28;20032;-35
2021/10/08 02:19:47;;;;;;;31.13;13.03;;;;;;;6.80;97.67;103081.84;5072750;28;20070;-35
2021/10/08 02:22:13;;;;;;;43.53;11.63;;;;;;;6.83;97.28;103091.44;5073210;28;20024;-35
2021/10/08 02:24:38;;;;;;;37.60;12.77;;;;;;;6.73;96.78;103091.50;5072623;28;20364;-35
2021/10/08 02:27:04;;;;;;;35.40;12.40;;;;;;;6.64;96.61;103079.81;5073130;28;20025;-35
2021/10/08 02:29:29;;;;;;;64.23;12.87;;;;;;;6.43;96.85;103066.63;5073266;28;20036;-35
2021/10/08 02:31:55;;;;;;;48.90;12.38;;;;;;;6.51;97.05;103081.16;5073360;28;20020;-35
2021/10/08 02:34:21;;;;;;;41.55;11.70;;;;;;;6.38;97.37;103057.31;5072971;28;20051;-35
2021/10/08 02:36:46;;;;;;;43.13;11.85;;;;;;;6.51;96.72;103083.84;5072579;28;20054;-35
2021/10/08 02:39:11;;;;;;;30.63;12.20;;;;;;;6.53;97.02;103084.53;5072772;28;20032;-35
2021/10/08 02:41:37;;;;;;;17.37;11.43;;;;;;;6.58;97.18;103084.94;5073043;28;20077;-35
2021/10/08 02:44:03;;;;;;;24.60;11.85;;;;;;;6.57;97.12;103094.84;5072481;28;20123;-35
2021/10/08 02:46:29;;;;;;;16.30;10.98;;;;;;;6.54;96.78;103089.78;5072394;28;20505;-35
2021/10/08 02:48:54;;;;;;;20.50;11.10;;;;;;;6.55;96.79;103086.09;5072291;28;20099;-35
2021/10/08 02:51:20;;;;;;;25.57;11.23;;;;;;;6.60;96.03;103093.72;5072162;28;20027;-35
2021/10/08 02:53:45;;;;;;;34.53;11.80;;;;;;;6.59;97.04;103097.41;5072799;28;20265;-35
2021/10/08 02:56:11;;;;;;;16.47;10.60;;;;;;;6.66;96.60;103096.63;5072635;28;20021;-35
2021/10/08 02:58:37;;;;;;;28.30;12.07;;;;;;;6.53;96.31;103076.47;5072589;28;20079;-35
2021/10/08 03:01:03;;;;;;;45.90;11.35;;;;;;;6.44;96.72;103067.44;5072553;28;20063;-35
2021/10/08 03:03:28;;;;;;;55.72;11.52;;;;;;;6.56;96.70;103098.53;5072275;28;20460;-35
2021/10/08 03:05:54;;;;;;;74.27;12.07;;;;;;;6.40;96.37;103071.47;5072658;28;20032;-35
2021/10/08 03:08:20;;;;;;;34.70;10.40;;;;;;;6.55;96.36;103094.16;5071924;28;20274;-35
2021/10/08 03:10:45;;;;;;;42.63;10.87;;;;;;;6.56;96.96;103090.47;5072396;28;20302;-35
2021/10/08 03:13:11;;;;;;;45.70;10.73;;;;;;;6.54;97.01;103096.97;5072083;28;20595;-35
2021/10/08 03:15:36;;;;;;;57.17;11.27;;;;;;;6.51;96.77;103098.13;5072944;28;20021;-35
2021/10/08 03:18:02;;;;;;;55.20;10.43;;;;;;;6.51;97.10;103089.22;5076296;28;20080;-35
2021/10/08 03:20:27;;;;;;;64.35;10.75;;;;;;;6.42;95.89;103094.50;5075918;28;20335;-35
2021/10/08 03:22:53;;;;;;;49.42;10.30;;;;;;;6.34;97.14;103083.63;5075771;28;20024;-35
2021/10/08 03:25:19;;;;;;;65.53;11.05;;;;;;;6.38;96.95;103089.56;5076175;28;20035;-35
2021/10/08 03:27:44;;;;;;;49.57;10.73;;;;;;;6.40;96.92;103082.22;5075639;28;20469;-35
2021/10/08 03:30:14;;;;;;;74.07;10.47;;;;;;;6.38;97.39;103094.94;5075587;28;20024;-35
2021/10/08 03:32:39;;;;;;;43.13;10.15;;;;;;;6.33;96.49;103081.94;5075235;28;20021;-35
2021/10/08 03:35:05;;;;;;;29.97;10.33;;;;;;;6.43;97.12;103101.56;5075495;28;20135;-35
2021/10/08 03:37:55;;;;;;;54.83;10.25;;;;;;;6.37;96.21;103099.47;5075470;28;20134;-35
2021/10/08 03:40:23;;;;;;;22.73;9.75;;;;;;;6.32;96.75;103092.84;5075467;28;20033;-35
2021/10/08 03:42:49;;;;;;;45.40;10.05;;;;;;;6.37;96.87;103098.63;5075326;28;20526;-36
2021/10/08 03:45:15;;;;;;;47.25;10.50;;;;;;;6.20;95.96;103081.47;5075346;28;20032;-35
2021/10/08 03:47:57;;;;;;;30.35;9.95;;;;;;;6.35;96.49;103097.94;5075512;28;20074;-35
2021/10/08 03:50:23;;;;;;;36.38;10.23;;;;;;;6.06;95.94;103066.66;5075423;28;20028;-35
2021/10/08 03:52:49;;;;;;;68.95;11.18;;;;;;;6.18;95.99;103100.38;5075282;28;20105;-35
2021/10/08 03:55:14;;;;;;;46.42;10.73;;;;;;;6.13;96.43;103088.41;5075036;28;20024;-35
2021/10/08 03:57:40;;;;;;;44.50;11.15;;;;;;;6.18;96.44;103102.22;5075217;28;20032;-35
2021/10/08 04:00:06;;;;;;;37.17;10.03;;;;;;;6.13;96.20;103108.03;5074717;28;20029;-35
2021/10/08 04:02:32;;;;;;;29.10;10.25;;;;;;;6.13;96.67;103101.81;5075213;28;20047;-35
2021/10/08 04:04:57;;;;;;;44.90;10.60;;;;;;;6.09;97.32;103095.03;5075302;28;20028;-35
2021/10/08 04:07:22;;;;;;;64.40;10.93;;;;;;;6.01;96.80;103103.84;5074918;28;20028;-35
2021/10/08 04:09:47;;;;;;;49.07;10.23;;;;;;;6.02;96.75;103097.47;5075183;28;20051;-35
2021/10/08 04:12:13;;;;;;;51.80;10.40;;;;;;;5.88;96.91;103088.00;5075408;28;20055;-35
2021/10/08 04:14:38;;;;;;;55.77;10.07;;;;;;;5.98;96.65;103105.97;5074510;28;20392;-35
2021/10/08 04:17:04;;;;;;;55.27;10.57;;;;;;;5.86;97.87;103094.53;5075454;28;20021;-35
2021/10/08 04:19:30;;;;;;;39.70;10.43;;;;;;;5.90;97.79;103102.16;5074279;28;20327;-35
2021/10/08 04:21:55;;;;;;;47.60;10.80;;;;;;;5.76;97.54;103086.50;5074885;28;20040;-35
2021/10/08 04:24:21;;;;;;;27.15;9.50;;;;;;;5.92;97.25;103116.31;5074566;28;20016;-35
2021/10/08 04:26:46;;;;;;;31.67;9.33;;;;;;;5.93;97.10;103111.78;5074859;28;20029;-35
2021/10/08 04:29:12;;;;;;;33.43;10.50;;;;;;;6.01;97.31;103111.91;5074850;28;20421;-35
2021/10/08 04:31:37;;;;;;;32.50;9.57;;;;;;;5.97;97.80;103112.34;5074971;28;20020;-35
2021/10/08 04:34:02;;;;;;;30.42;9.68;;;;;;;6.04;96.69;103119.66;5074801;28;20364;-35
2021/10/08 04:36:28;;;;;;;20.70;8.93;;;;;;;6.06;96.85;103117.69;5074455;28;20503;-35
2021/10/08 04:38:53;;;;;;;25.33;8.27;;;;;;;6.08;96.09;103122.91;5074591;28;20031;-35
2021/10/08 04:41:19;;;;;;;45.73;9.37;;;;;;;5.92;96.69;103105.56;5074213;28;20051;-35
2021/10/08 04:43:44;;;;;;;53.33;9.00;;;;;;;5.87;96.76;103090.84;5074623;28;20082;-35
2021/10/08 04:46:10;;;;;;;67.97;9.20;;;;;;;5.96;96.22;103124.94;5074363;28;20413;-35
2021/10/08 04:48:35;;;;;;;58.28;9.07;;;;;;;5.98;96.43;103122.09;5074041;28;20432;-35
2021/10/08 04:51:00;;;;;;;32.30;8.60;;;;;;;5.94;96.93;103119.69;5074572;28;20103;-35
2021/10/08 04:53:26;;;;;;;34.77;8.70;;;;;;;5.91;96.99;103111.06;5074146;28;20346;-35
2021/10/08 04:55:51;;;;;;;63.07;9.00;;;;;;;5.96;95.97;103129.47;5074691;28;20456;-35
2021/10/08 04:58:18;;;;;;;39.17;9.38;;;;;;;5.88;96.45;103112.19;5074156;28;20048;-35
2021/10/08 05:00:47;;;;;;;35.28;8.85;;;;;;;5.90;96.89;103123.66;5073767;28;20021;-35
2021/10/08 05:03:15;;;;;;;45.10;9.35;;;;;;;5.79;96.21;103113.03;5073975;28;20032;-35
2021/10/08 05:05:47;;;;;;;46.60;9.73;;;;;;;5.80;96.97;103127.31;5073671;28;20025;-35
2021/10/08 05:08:15;;;;;;;101.60;10.50;;;;;;;5.65;96.73;103114.31;5073858;28;20028;-35
2021/10/08 05:10:41;;;;;;;82.13;10.98;;;;;;;5.69;96.96;103122.94;5074028;28;20476;-35
2021/10/08 05:13:06;;;;;;;68.95;10.52;;;;;;;5.67;97.49;103100.78;5074139;28;20036;-35
2021/10/08 05:15:31;;;;;;;40.20;9.87;;;;;;;5.81;96.69;103134.41;5073530;28;20151;-35
2021/10/08 05:17:58;;;;;;;48.37;9.33;;;;;;;5.74;96.99;103128.72;5073988;28;20025;-35
2021/10/08 05:20:23;;;;;;;;;;;;;;;5.85;96.39;103139.31;5074308;28;20100;-35
2021/10/08 05:22:48;;;;;;;34.53;8.73;;;;;;;5.73;96.71;103140.47;5073673;28;19955;-35
2021/10/08 05:25:14;;;;;;;70.30;10.27;;;;;;;5.68;97.84;103130.16;5073388;28;20021;-35
2021/10/08 05:27:39;;;;;;;65.63;9.73;;;;;;;5.67;97.80;103138.38;5073067;28;20449;-35
2021/10/08 05:30:05;;;;;;;49.50;9.97;;;;;;;5.63;97.08;103128.91;5072360;28;20152;-35
2021/10/08 05:32:31;;;;;;;85.95;10.82;;;;;;;5.57;97.27;103121.44;5073348;28;20444;-35
2021/10/08 05:34:56;;;;;;;48.67;10.37;;;;;;;5.69;97.75;103142.59;5072858;28;20023;-35
2021/10/08 05:37:21;;;;;;;41.80;8.90;;;;;;;5.62;97.66;103124.53;5073155;28;20495;-35
2021/10/08 05:39:46;;;;;;;49.17;9.20;;;;;;;5.72;96.61;103141.47;5072732;28;20056;-35
2021/10/08 05:42:12;;;;;;;57.53;9.47;;;;;;;5.65;97.38;103143.84;5073403;28;20059;-35
2021/10/08 05:44:37;;;;;;;68.30;10.53;;;;;;;5.64;97.35;103149.38;5072999;28;20021;-35
2021/10/08 05:47:03;;;;;;;69.33;10.70;;;;;;;5.61;97.78;103138.91;5073092;28;20353;-35
2021/10/08 05:49:28;;;;;;;55.23;9.40;;;;;;;5.62;97.44;103140.63;5072941;28;20036;-35
2021/10/08 05:51:54;;;;;;;23.27;8.57;;;;;;;5.68;98.26;103134.69;5073373;28;20576;-35
2021/10/08 05:54:19;;;;;;;127.77;12.27;;;;;;;5.58;98.04;103145.44;5072992;28;20021;-35
2021/10/08 05:56:44;;;;;;;86.20;10.97;;;;;;;5.63;98.57;103153.06;5073275;28;20294;-35
2021/10/08 05:59:10;;;;;;;74.27;10.80;;;;;;;5.63;98.46;103158.44;5072957;28;20043;-35
2021/10/08 06:01:35;;;;;;;67.80;11.10;;;;;;;5.67;98.14;103160.69;5073163;28;20020;-35
2021/10/08 06:04:05;;;;;;;45.27;10.27;;;;;;;5.74;99.04;103160.09;5072630;28;20024;-35
2021/10/08 06:06:31;;;;;;;29.55;9.80;;;;;;;5.77;98.63;103160.69;5072851;28;20130;-35
2021/10/08 06:08:56;;;;;;;56.00;10.63;;;;;;;5.74;99.02;103154.75;5073102;28;20052;-35
2021/10/08 06:11:21;;;;;;;101.27;12.10;;;;;;;5.75;98.48;103162.63;5073325;28;20163;-35
2021/10/08 06:13:47;;;;;;;96.27;11.83;;;;;;;5.74;99.60;103171.69;5073456;28;20043;-38
2021/10/08 06:16:12;;;;;;;150.03;14.27;;;;;;;5.62;99.29;103172.84;5073010;28;20111;-35
2021/10/08 06:18:37;;;;;;;84.13;12.10;;;;;;;5.60;98.91;103169.44;5072863;28;20460;-35
2021/10/08 06:21:02;;;;;;;145.50;15.03;;;;;;;5.55;99.56;103174.38;5072856;28;20112;-35
2021/10/08 06:23:28;;;;;;;97.80;12.67;;;;;;;5.60;100.00;103175.66;5072774;28;20025;-35
2021/10/08 06:25:54;;;;;;;88.07;14.75;;;;;;;5.62;100.00;103181.75;5073061;28;20372;-35
2021/10/08 06:28:19;;;;;;;86.60;14.38;;;;;;;5.67;100.00;103173.25;5072725;28;20094;-35
2021/10/08 06:30:44;;;;;;;54.00;13.33;;;;;;;5.66;100.00;103161.69;5072284;28;20031;-35
2021/10/08 06:33:10;;;;;;;101.80;15.20;;;;;;;5.79;100.00;103185.53;5072826;28;20020;-35
2021/10/08 06:35:35;;;;;;;63.17;15.13;;;;;;;5.85;100.00;103187.66;5072482;28;20390;-35
2021/10/08 06:38:00;;;;;;;151.37;20.60;;;;;;;5.75;100.00;103184.13;5072846;28;20024;-35
2021/10/08 06:40:26;;;;;;;105.03;19.40;;;;;;;5.75;100.00;103192.19;5072337;28;20040;-35
2021/10/08 06:42:52;;;;;;;95.53;19.30;;;;;;;5.81;100.00;103188.09;5072197;28;20025;-35
2021/10/08 06:45:17;;;;;;;119.22;21.33;;;;;;;5.67;100.00;103167.91;5072620;28;20028;-35
2021/10/08 06:47:42;;;;;;;115.87;20.30;;;;;;;5.87;100.00;103191.06;5072972;28;20024;-35
2021/10/08 06:50:08;;;;;;;128.47;21.23;;;;;;;5.68;100.00;103158.84;5072419;28;20074;-35
2021/10/08 06:52:34;;;;;;;111.70;21.45;;;;;;;5.96;100.00;103194.75;5076174;28;20031;-35
2021/10/08 06:54:59;;;;;;;65.50;18.03;;;;;;;6.15;100.00;103188.50;5076284;28;20024;-35
2021/10/08 06:57:25;;;;;;;90.47;20.90;;;;;;;6.18;100.00;103189.03;5076324;28;20031;-35
2021/10/08 06:59:50;;;;;;;63.20;18.33;;;;;;;6.32;100.00;103190.44;5076299;28;20029;-35
2021/10/08 07:02:16;;;;;;;99.50;22.67;;;;;;;6.35;100.00;103187.47;5076977;28;20025;-35
2021/10/08 07:04:41;;;;;;;224.20;26.75;;;;;;;6.23;100.00;103194.00;5076182;28;20354;-35
2021/10/08 07:07:07;;;;;;;125.35;23.08;;;;;;;6.24;100.00;103195.69;5076432;28;20025;-35
2021/10/08 07:09:32;;;;;;;118.23;24.80;;;;;;;6.10;100.00;103183.56;5076243;28;20439;-35
2021/10/08 07:11:57;;;;;;;123.07;26.53;;;;;;;6.13;100.00;103194.00;5075900;28;20055;-35
2021/10/08 07:14:23;;;;;;;106.10;25.83;;;;;;;6.10;100.00;103188.06;5076012;28;20028;-35
2021/10/08 07:16:50;;;;;;;93.67;24.90;;;;;;;6.27;100.00;103200.78;5075947;28;20024;-35
2021/10/08 07:19:16;;;;;;;73.43;22.70;;;;;;;6.39;100.00;103202.31;5076363;28;20093;-35
2021/10/08 07:21:42;;;;;;;48.95;21.70;;;;;;;6.50;100.00;103201.28;5076185;28;20025;-35
2021/10/08 07:24:11;;;;;;;76.00;24.25;;;;;;;6.50;100.00;103198.59;5075760;28;20055;-35
2021/10/08 07:26:37;;;;;;;76.18;22.52;;;;;;;6.50;100.00;103200.44;5076327;28;20087;-35
2021/10/08 07:29:04;;;;;;;80.85;23.27;;;;;;;6.59;100.00;103199.56;5075635;28;20035;-35
2021/10/08 07:31:30;;;;;;;106.95;24.85;;;;;;;6.61;100.00;103209.16;5076152;28;20021;-35
2021/10/08 07:33:55;;;;;;;95.97;22.67;;;;;;;6.62;100.00;103205.47;5075934;28;20032;-35
2021/10/08 07:36:22;;;;;;;82.17;23.43;;;;;;;6.62;100.00;103201.94;5076429;28;20025;-35
2021/10/08 07:38:47;;;;;;;47.95;20.48;;;;;;;6.81;100.00;103211.78;5075805;28;20029;-35
2021/10/08 07:41:13;;;;;;;94.73;23.00;;;;;;;6.85;100.00;103215.84;5075615;28;20035;-35
2021/10/08 07:43:40;;;;;;;110.88;24.50;;;;;;;6.78;100.00;103212.91;5075853;28;20029;-35
2021/10/08 07:46:06;;;;;;;116.22;24.23;;;;;;;6.69;100.00;103203.06;5076279;28;20028;-35
2021/10/08 07:48:32;;;;;;;62.83;22.35;;;;;;;6.92;100.00;103215.09;5074305;28;20035;-35
2021/10/08 07:50:58;;;;;;;99.43;24.38;;;;;;;6.97;100.00;103209.28;5075444;28;20032;-35
2021/10/08 07:53:24;;;;;;;76.63;23.75;;;;;;;7.09;100.00;103216.16;5075015;28;20025;-35
2021/10/08 07:55:50;;;;;;;120.13;25.10;;;;;;;7.13;100.00;103219.41;5075041;28;20057;-35
2021/10/08 07:58:15;;;;;;;109.43;24.35;;;;;;;7.13;100.00;103197.88;5075797;28;20029;-35
2021/10/08 08:00:40;;;;;;;206.53;25.13;;;;;;;7.21;100.00;103217.63;5074892;28;20448;-35
2021/10/08 08:03:06;;;;;;;72.47;22.50;;;;;;;7.25;100.00;103207.41;5074917;28;20337;-35
2021/10/08 08:05:31;;;;;;;109.00;23.33;;;;;;;7.36;100.00;103214.44;5075346;28;20482;-35
2021/10/08 08:07:56;;;;;;;55.77;21.67;;;;;;;7.21;100.00;103181.81;5075423;28;20099;-35
2021/10/08 08:10:22;;;;;;;155.07;24.63;;;;;;;7.47;100.00;103217.75;5075337;28;20103;-35
2021/10/08 08:12:48;;;;;;;99.93;23.15;;;;;;;7.41;100.00;103206.75;5075566;28;20016;-35
2021/10/08 08:15:14;;;;;;;77.03;22.48;;;;;;;7.64;100.00;103231.38;5075252;28;20108;-35
2021/10/08 08:17:40;;;;;;;84.32;22.98;;;;;;;7.66;100.00;103222.16;5074927;28;20093;-35
2021/10/08 08:20:07;;;;;;;108.38;23.90;;;;;;;7.71;100.00;103218.97;5074872;28;20024;-35
2021/10/08 08:22:33;;;;;;;184.93;28.65;;;;;;;7.74;100.00;103229.47;5075366;28;20507;-35
2021/10/08 08:24:58;;;;;;;190.70;25.95;;;;;;;7.78;100.00;103230.00;5075127;28;20107;-35
2021/10/08 08:27:23;;;;;;;73.00;24.13;;;;;;;7.79;100.00;103215.53;5074511;28;20024;-35
2021/10/08 08:29:49;;;;;;;76.07;22.17;;;;;;;7.88;100.00;103218.13;5075059;28;20127;-36
2021/10/08 08:32:15;;;;;;;110.93;24.40;;;;;;;8.03;100.00;103218.44;5074972;28;20287;-35
2021/10/08 08:34:41;;;;;;;151.82;26.77;;;;;;;8.04;100.00;103216.56;5074509;28;20031;-35
2021/10/08 08:37:07;;;;;;;253.18;30.08;;;;;;;7.97;100.00;103210.97;5074860;28;20048;-35
2021/10/08 08:39:34;;;;;;;48.13;23.27;;;;;;;8.13;100.00;103219.19;5074285;28;20105;-35
2021/10/08 08:41:59;;;;;;;179.38;27.17;;;;;;;8.17;100.00;103225.94;5075273;28;20040;-35
2021/10/08 08:44:24;;;;;;;98.40;27.90;;;;;;;8.20;100.00;103209.47;5074434;28;20036;-35
2021/10/08 08:46:50;;;;;;;178.07;30.07;;;;;;;8.14;100.00;103218.16;5074622;28;20024;-35
2021/10/08 08:49:16;;;;;;;63.20;26.42;;;;;;;8.37;100.00;103215.84;5074112;28;20104;-35
2021/10/08 08:51:41;;;;;;;139.90;31.17;;;;;;;8.32;100.00;103223.53;5075046;28;20029;-35
2021/10/08 08:54:07;;;;;;;69.30;26.53;;;;;;;8.45;100.00;103224.00;5074141;28;20020;-35
2021/10/08 08:56:36;;;;;;;118.00;31.23;;;;;;;8.46;100.00;103216.75;5074406;28;20784;-35
2021/10/08 08:59:12;;;;;;;142.80;31.75;;;;;;;8.46;100.00;103222.97;5074223;28;20021;-35
2021/10/08 09:02:01;;;;;;;166.30;33.35;;;;;;;8.51;100.00;103223.34;5074636;28;20174;-35
2021/10/08 09:04:28;;;;;;;176.75;38.00;;;;;;;8.50;100.00;103227.06;5074483;28;20013;-35
2021/10/08 09:06:55;;;;;;;108.05;33.95;;;;;;;8.61;100.00;103225.94;5073928;28;20073;-35
2021/10/08 09:09:22;;;;;;;137.43;35.67;;;;;;;8.62;100.00;103219.53;5073774;28;20045;-35
2021/10/08 09:11:49;;;;;;;112.95;34.85;;;;;;;8.68;100.00;103218.88;5074334;28;20024;-35
2021/10/08 09:14:24;;;;;;;125.43;35.17;;;;;;;8.59;100.00;103209.09;5072996;28;20020;-35
2021/10/08 09:17:09;;;;;;;118.95;36.60;;;;;;;8.66;100.00;103214.66;5073892;28;20092;-35
2021/10/08 09:19:53;;;;;;;80.75;37.50;;;;;;;8.84;100.00;103218.13;5073178;28;20028;-35
2021/10/08 09:22:36;;;;;;;86.05;37.63;;;;;;;8.97;100.00;103220.38;5074225;28;20020;-35
2021/10/08 09:25:21;;;;;;;93.43;39.28;;;;;;;9.03;100.00;103225.97;5073690;28;20056;-35
2021/10/08 09:27:52;;;;;;;123.30;44.22;;;;;;;9.08;100.00;103230.03;5074248;28;20028;-35
2021/10/08 09:30:18;;;;;;;94.85;41.35;;;;;;;9.05;100.00;103200.66;5073667;28;20330;-35
2021/10/08 09:32:47;;;;;;;83.55;42.30;;;;;;;9.31;100.00;103220.31;5073499;28;20048;-35
2021/10/08 09:35:16;;;;;;;84.57;39.55;;;;;;;9.49;100.00;103221.03;5073744;28;20400;-35
2021/10/08 09:37:43;;;;;;;87.97;39.80;;;;;;;9.59;100.00;103222.75;5073459;28;20128;-35
2021/10/08 09:40:22;;;;;;;91.60;43.38;;;;;;;9.66;100.00;103224.63;5073257;28;20036;-35
2021/10/08 09:42:47;;;;;;;91.78;43.53;;;;;;;9.65;100.00;103220.22;5074002;28;20282;-35
2021/10/08 09:45:13;;;;;;;94.40;43.07;;;;;;;9.80;100.00;103210.44;5072931;28;20027;-35
2021/10/08 09:47:57;;;;;;;88.35;43.78;;;;;;;10.01;100.00;103215.34;5074071;28;20339;-35
2021/10/08 09:50:23;;;;;;;82.22;39.28;;;;;;;9.99;100.00;103195.72;5073327;28;20111;-35
2021/10/08 09:52:49;;;;;;;79.47;39.57;;;;;;;10.10;100.00;103209.91;5073139;28;20055;-36
2021/10/08 09:55:15;;;;;;;86.07;42.75;;;;;;;10.18;100.00;103209.91;5073026;28;20024;-35
2021/10/08 09:57:50;;;;;;;76.45;37.53;;;;;;;10.17;100.00;103211.78;5073205;28;20058;-35
2021/10/08 10:00:37;;;;;;;61.03;33.60;;;;;;;10.24;100.00;103195.75;5073132;28;20377;-35
2021/10/08 10:03:04;;;;;;;70.32;38.63;;;;;;;10.40;100.00;103209.25;5073819;28;20020;-35
2021/10/08 10:05:30;;;;;;;68.90;39.92;;;;;;;10.58;100.00;103209.03;5073054;28;20511;-35
2021/10/08 10:07:56;;;;;;;65.70;38.90;;;;;;;10.77;100.00;103211.31;5072863;28;20017;-35
2021/10/08 10:10:22;;;;;;;;;;;;;;;10.93;100.00;103206.88;5073416;28;20048;-35
2021/10/08 10:12:48;;;;;;;71.35;40.63;;;;;;;11.01;100.00;103210.38;5072947;28;20368;-35
2021/10/08 10:15:14;;;;;;;67.72;39.67;;;;;;;11.03;100.00;103205.66;5073062;28;20025;-35
2021/10/08 10:17:40;;;;;;;71.67;41.97;;;;;;;11.01;99.83;103198.72;5073124;28;20073;-36
2021/10/08 10:20:09;;;;;;;70.40;41.17;;;;;;;11.18;100.00;103194.91;5073360;28;20024;-35
2021/10/08 10:22:36;;;;;;;60.58;39.38;;;;;;;11.17;97.69;103200.50;5073250;28;20085;-36
2021/10/08 10:25:02;;;;;;;64.32;40.22;;;;;;;11.21;98.69;103182.88;5074455;28;20024;-36
2021/10/08 10:27:27;;;;;;;67.35;39.50;;;;;;;11.40;97.65;103204.06;5076785;28;20024;-35
2021/10/08 10:29:53;;;;;;;64.05;39.58;;;;;;;11.35;97.66;103182.09;5076976;28;20020;-35
2021/10/08 10:32:18;;;;;;;67.95;40.72;;;;;;;11.60;98.22;103199.88;5077207;28;20029;-35
2021/10/08 10:34:44;;;;;;;60.90;40.70;;;;;;;11.59;96.70;103198.19;5076617;28;20472;-35
2021/10/08 10:37:10;;;;;;;63.37;38.20;;;;;;;11.82;98.54;103202.81;5077238;28;20261;-35
2021/10/08 10:39:35;;;;;;;71.03;42.78;;;;;;;11.82;96.96;103186.53;5077330;28;20021;-36
2021/10/08 10:42:01;;;;;;;59.15;38.95;;;;;;;11.93;95.67;103188.81;5076960;28;20021;-35
2021/10/08 10:44:33;;;;;;;67.20;42.63;;;;;;;12.09;95.79;103193.22;5076709;28;20378;-36
2021/10/08 10:47:33;;;;;;;57.95;37.72;;;;;;;12.26;95.75;103194.78;5076996;28;20111;-35
2021/10/08 10:50:28;;;;;;;59.03;38.65;;;;;;;12.26;93.80;103180.38;5076506;28;20035;-36
2021/10/08 10:52:56;;;;;;;50.83;35.67;;;;;;;12.46;94.15;103181.50;5076820;28;20028;-35
2021/10/08 10:55:23;;;;;;;55.72;37.10;;;;;;;12.32;92.15;103161.47;5076485;28;20020;-35
2021/10/08 10:57:55;;;;;;;55.78;36.35;;;;;;;12.56;92.26;103181.22;5077216;28;20390;-35
2021/10/08 11:00:38;;;;;;;66.63;40.92;;;;;;;12.66;93.41;103162.78;5076589;28;20028;-35
2021/10/08 11:03:03;;;;;;;59.63;37.38;;;;;;;12.81;91.47;103176.34;5076297;28;20021;-35
2021/10/08 11:05:30;;;;;;;64.10;41.27;;;;;;;13.05;93.37;103173.28;5076764;28;20035;-35
2021/10/08 11:08:16;;;;;;;60.97;40.72;;;;;;;13.06;92.28;103160.56;5076237;28;20380;-35
2021/10/08 11:11:06;;;;;;;63.67;41.63;;;;;;;13.17;92.48;103159.22;5075738;28;20101;-35
2021/10/08 11:13:36;;;;;;;53.63;36.08;;;;;;;13.21;91.13;103127.91;5076358;28;20025;-36